Time;durP1;ratioP1;P1;durP2;ratioP2;P2;SDS_P1;SDS_P2;PMS_P1;PMS_P2;Temp;Humidity;BMP_temperature;BMP_pressure;BME280_temperature;BME280_humidity;BME280_pressure;Samples;Min_cycle;Max_cycle;Signal;HPM_P1;HPM_P2
2024/02/16 00:00:03;;;;;;;;;5.00;5.00;;;;;-144.24;100.00;114865.94;5054833;28;45931;-70
2024/02/16 00:02:28;;;;;;;;;7.00;7.00;;;;;-144.24;100.00;114865.94;5073102;28;45388;-70
2024/02/16 00:04:54;;;;;;;;;6.00;5.00;;;;;-144.24;100.00;114865.94;5075714;28;45543;-71
2024/02/16 00:07:19;;;;;;;;;10.00;5.00;;;;;-144.24;100.00;114865.94;5074087;28;46193;-70
2024/02/16 00:09:44;;;;;;;;;6.67;4.67;;;;;-144.24;100.00;114865.94;5074798;28;64090;-70
2024/02/16 00:12:10;;;;;;;;;5.67;5.67;;;;;-144.24;100.00;114865.94;5072792;28;57582;-71
2024/02/16 00:14:35;;;;;;;;;7.67;5.67;;;;;-144.24;100.00;114865.94;5075741;28;45525;-71
2024/02/16 00:17:00;;;;;;;;;9.00;6.00;;;;;-144.24;100.00;114865.94;5072737;28;46431;-70
2024/02/16 00:19:27;;;;;;;;;5.33;5.00;;;;;-144.24;100.00;114865.94;5079283;28;45350;-70
2024/02/16 00:21:53;;;;;;;;;5.67;5.00;;;;;-144.24;100.00;114865.94;5078455;28;45430;-71
2024/02/16 00:24:18;;;;;;;;;5.67;5.67;;;;;-144.24;100.00;114865.94;5078771;28;45540;-69
2024/02/16 00:26:45;;;;;;;;;8.00;5.00;;;;;-144.24;100.00;114865.94;5078635;28;58002;-70
2024/02/16 00:29:10;;;;;;;;;4.33;4.33;;;;;-144.24;100.00;114865.94;5079070;28;45491;-71
2024/02/16 00:31:36;;;;;;;;;7.67;5.00;;;;;-144.24;100.00;114865.94;5079100;28;45386;-70
2024/02/16 00:34:01;;;;;;;;;5.00;5.00;;;;;-144.24;100.00;114865.94;5079055;28;45493;-70
2024/02/16 00:36:27;;;;;;;;;4.00;4.00;;;;;-144.24;100.00;114865.94;5078752;28;46654;-70
2024/02/16 00:38:53;;;;;;;;;7.67;5.33;;;;;-144.24;100.00;114865.94;5078726;28;45440;-71
2024/02/16 00:41:22;;;;;;;;;4.00;4.00;;;;;-144.24;100.00;114865.94;5077984;28;57075;-70
2024/02/16 00:43:47;;;;;;;;;5.00;3.67;;;;;-144.24;100.00;114865.94;5079208;28;45401;-71
2024/02/16 00:46:13;;;;;;;;;4.00;4.00;;;;;-144.24;100.00;114865.94;5077446;28;45354;-70
2024/02/16 00:48:38;;;;;;;;;8.67;6.00;;;;;-144.24;100.00;114865.94;5078748;28;52923;-70
2024/02/16 00:51:03;;;;;;;;;5.33;4.67;;;;;-144.24;100.00;114865.94;5078004;28;46610;-71
2024/02/16 00:53:29;;;;;;;;;4.00;3.00;;;;;-144.24;100.00;114865.94;5078856;28;45433;-70
2024/02/16 00:55:54;;;;;;;;;4.33;4.00;;;;;-144.24;100.00;114865.94;5077919;28;57278;-70
2024/02/16 00:58:19;;;;;;;;;7.00;5.67;;;;;-144.24;100.00;114865.94;5078514;28;45267;-70
2024/02/16 01:00:45;;;;;;;;;6.00;5.00;;;;;-144.24;100.00;114865.94;5078155;28;48293;-70
2024/02/16 01:03:12;;;;;;;;;5.00;5.00;;;;;-144.24;100.00;114865.94;5071504;28;45548;-70
2024/02/16 01:05:37;;;;;;;;;4.00;4.00;;;;;-144.24;100.00;114865.94;5073696;28;46431;-70
2024/02/16 01:08:03;;;;;;;;;6.00;5.00;;;;;-144.24;100.00;114865.94;5078270;28;45298;-70
2024/02/16 01:10:28;;;;;;;;;4.67;3.00;;;;;-144.24;100.00;114865.94;5077948;28;45514;-71
2024/02/16 01:12:55;;;;;;;;;5.67;4.00;;;;;-144.24;100.00;114865.94;5077428;28;47311;-70
2024/02/16 01:15:21;;;;;;;;;5.00;5.00;;;;;-144.24;100.00;114865.94;5076011;28;45848;-70
2024/02/16 01:17:46;;;;;;;;;3.00;3.00;;;;;-144.24;100.00;114865.94;5078542;28;45463;-71
2024/02/16 01:20:12;;;;;;;;;5.67;4.67;;;;;-144.24;100.00;114865.94;5078468;28;45167;-71
2024/02/16 01:22:38;;;;;;;;;5.33;5.00;;;;;-144.24;100.00;114865.94;5078414;28;45223;-70
2024/02/16 01:25:04;;;;;;;;;5.67;5.67;;;;;-144.24;100.00;114865.94;5059450;28;46576;-69
2024/02/16 01:27:30;;;;;;;;;6.33;5.00;;;;;-144.24;100.00;114865.94;5076807;28;45350;-70
2024/02/16 01:29:55;;;;;;;;;6.00;4.67;;;;;-144.24;100.00;114865.94;5077878;28;45333;-70
2024/02/16 01:32:21;;;;;;;;;5.00;5.00;;;;;-144.24;100.00;114865.94;5078206;28;45279;-71
2024/02/16 01:34:49;;;;;;;;;9.00;5.67;;;;;-144.24;100.00;114865.94;5058402;28;45791;-70
2024/02/16 01:37:14;;;;;;;;;5.00;5.00;;;;;-144.24;100.00;114865.94;5077665;28;45471;-70
2024/02/16 01:39:40;;;;;;;;;8.00;5.00;;;;;-144.24;100.00;114865.94;5077754;28;45306;-71
2024/02/16 01:42:05;;;;;;;;;5.00;5.00;;;;;-144.24;100.00;114865.94;5077504;28;51572;-71
2024/02/16 01:44:31;;;;;;;;;7.00;5.67;;;;;-144.24;100.00;114865.94;5077703;28;45290;-70
2024/02/16 01:46:56;;;;;;;;;4.00;4.00;;;;;-144.24;100.00;114865.94;5059515;28;45480;-70
2024/02/16 01:49:22;;;;;;;;;4.00;3.00;;;;;-144.24;100.00;114865.94;5077570;28;45606;-71
2024/02/16 01:51:47;;;;;;;;;7.00;5.67;;;;;-144.24;100.00;114865.94;5078103;28;46263;-71
2024/02/16 01:54:12;;;;;;;;;3.00;3.00;;;;;-144.24;100.00;114865.94;5076088;28;46119;-70
2024/02/16 01:56:38;;;;;;;;;5.00;5.00;;;;;-144.24;100.00;114865.94;5077816;28;45212;-70
2024/02/16 01:59:03;;;;;;;;;6.00;4.00;;;;;-144.24;100.00;114865.94;5056053;28;50913;-71
2024/02/16 02:01:29;;;;;;;;;7.00;6.00;;;;;-144.24;100.00;114865.94;5074257;28;45592;-71
2024/02/16 02:03:55;;;;;;;;;6.33;5.33;;;;;-144.24;100.00;114865.94;5067011;28;46092;-71
2024/02/16 02:06:21;;;;;;;;;11.33;5.33;;;;;-144.24;100.00;114865.94;5073973;28;56017;-71
2024/02/16 02:08:46;;;;;;;;;5.33;3.67;;;;;-144.24;100.00;114865.94;5077297;28;45493;-72
2024/02/16 02:11:12;;;;;;;;;5.67;5.00;;;;;-144.24;100.00;114865.94;5077252;28;45295;-69
2024/02/16 02:13:37;;;;;;;;;6.00;4.33;;;;;-144.24;100.00;114865.94;5076924;28;50906;-70
2024/02/16 02:16:04;;;;;;;;;6.00;4.00;;;;;-144.24;100.00;114865.94;5074055;28;45369;-70
2024/02/16 02:18:30;;;;;;;;;5.33;5.33;;;;;-144.24;100.00;114865.94;5077214;28;45449;-70
2024/02/16 02:20:55;;;;;;;;;7.00;6.00;;;;;-144.24;100.00;114865.94;5077595;28;45723;-70
2024/02/16 02:23:21;;;;;;;;;6.00;4.67;;;;;-144.24;100.00;114865.94;5076676;28;60486;-71
2024/02/16 02:25:48;;;;;;;;;4.33;4.33;;;;;-144.24;100.00;114865.94;5077052;28;45294;-71
2024/02/16 02:28:15;;;;;;;;;5.00;5.00;;;;;-144.24;100.00;114865.94;5077095;28;45201;-71
2024/02/16 02:30:41;;;;;;;;;5.33;5.33;;;;;-144.24;100.00;114865.94;5077341;28;45452;-71
2024/02/16 02:33:06;;;;;;;;;4.00;4.00;;;;;-144.24;100.00;114865.94;5077153;28;46088;-70
2024/02/16 02:35:31;;;;;;;;;3.33;3.33;;;;;-144.24;100.00;114865.94;5076777;28;59498;-70
2024/02/16 02:37:57;;;;;;;;;4.67;4.67;;;;;-144.24;100.00;114865.94;5077079;28;45509;-70
2024/02/16 02:40:22;;;;;;;;;5.33;5.00;;;;;-144.24;100.00;114865.94;5073395;28;45387;-71
2024/02/16 02:42:48;;;;;;;;;5.00;5.00;;;;;-144.24;100.00;114865.94;5058523;28;47339;-70
2024/02/16 02:45:13;;;;;;;;;5.67;5.67;;;;;-144.24;100.00;114865.94;5076468;28;60563;-70
2024/02/16 02:47:38;;;;;;;;;6.33;6.00;;;;;-144.24;100.00;114865.94;5076983;28;45425;-70
2024/02/16 02:50:04;;;;;;;;;6.67;5.00;;;;;-144.24;100.00;114865.94;5058908;28;45320;-71
2024/02/16 02:52:30;;;;;;;;;5.00;5.00;;;;;-144.24;100.00;114865.94;5076922;28;46420;-70
2024/02/16 02:54:55;;;;;;;;;4.33;4.00;;;;;-144.24;100.00;114865.94;5056606;28;45462;-70
2024/02/16 02:57:20;;;;;;;;;5.33;5.33;;;;;-144.24;100.00;114865.94;5076155;28;59830;-70
2024/02/16 02:59:46;;;;;;;;;10.67;6.00;;;;;-144.24;100.00;114865.94;5076808;28;45369;-71
2024/02/16 03:02:11;;;;;;;;;4.33;4.00;;;;;-144.24;100.00;114865.94;5075450;28;63704;-70
2024/02/16 03:04:36;;;;;;;;;5.00;5.00;;;;;-144.24;100.00;114865.94;5074300;28;45951;-70
2024/02/16 03:07:02;;;;;;;;;6.00;4.67;;;;;-144.24;100.00;114865.94;5075735;28;57456;-71
2024/02/16 03:09:28;;;;;;;;;6.33;5.33;;;;;-144.24;100.00;114865.94;5076807;28;45440;-71
2024/02/16 03:11:53;;;;;;;;;5.00;5.00;;;;;-144.24;100.00;114865.94;5075956;28;45392;-70
2024/02/16 03:14:18;;;;;;;;;4.67;4.67;;;;;-144.24;100.00;114865.94;5058309;28;62938;-70
2024/02/16 03:16:44;;;;;;;;;6.33;4.67;;;;;-144.24;100.00;114865.94;5075141;28;45192;-70
2024/02/16 03:19:09;;;;;;;;;6.33;6.33;;;;;-144.24;100.00;114865.94;5076659;28;45703;-70
2024/02/16 03:21:35;;;;;;;;;6.67;5.33;;;;;-144.24;100.00;114865.94;5076029;28;46385;-70
2024/02/16 03:24:02;;;;;;;;;2.00;2.00;;;;;-144.24;100.00;114865.94;5058171;28;45438;-70
2024/02/16 03:26:27;;;;;;;;;6.33;5.00;;;;;-144.24;100.00;114865.94;5058332;28;45327;-71
2024/02/16 03:28:53;;;;;;;;;5.00;5.00;;;;;-144.24;100.00;114865.94;5076233;28;56270;-70
2024/02/16 03:31:23;;;;;;;;;4.67;4.00;;;;;-144.24;100.00;114865.94;5056493;28;45422;-70
2024/02/16 03:33:51;;;;;;;;;6.00;6.00;;;;;-144.24;100.00;114865.94;5076115;28;45506;-71
2024/02/16 03:36:18;;;;;;;;;4.33;4.33;;;;;-144.24;100.00;114865.94;5076053;28;45422;-70
2024/02/16 03:38:44;;;;;;;;;5.00;5.00;;;;;-144.24;100.00;114865.94;5076888;28;45320;-70
2024/02/16 03:41:14;;;;;;;;;5.33;5.33;;;;;-144.24;100.00;114865.94;5057721;28;46492;-70
2024/02/16 03:43:40;;;;;;;;;4.67;4.00;;;;;-144.24;100.00;114865.94;5076076;28;45267;-70
2024/02/16 03:46:05;;;;;;;;;6.00;3.00;;;;;-144.24;100.00;114865.94;5076421;28;45275;-70
2024/02/16 03:48:30;;;;;;;;;4.33;4.00;;;;;-144.24;100.00;114865.94;5075570;28;59126;-70
2024/02/16 03:50:56;;;;;;;;;6.00;5.00;;;;;-144.24;100.00;114865.94;5076917;28;62274;-70
2024/02/16 03:53:21;;;;;;;;;5.00;5.00;;;;;-144.24;100.00;114865.94;5079929;28;45378;-70
2024/02/16 03:55:46;;;;;;;;;8.00;5.00;;;;;-144.24;100.00;114865.94;5078819;28;60245;-70
2024/02/16 03:58:12;;;;;;;;;6.67;3.33;;;;;-144.24;100.00;114865.94;5079207;28;45508;-71
2024/02/16 04:00:38;;;;;;;;;4.00;4.00;;;;;-144.24;100.00;114865.94;5079167;28;46391;-70
2024/02/16 04:03:04;;;;;;;;;5.67;5.67;;;;;-144.24;100.00;114865.94;5076309;28;45670;-70
2024/02/16 04:05:32;;;;;;;;;6.00;4.00;;;;;-144.24;100.00;114865.94;5078428;28;45592;-70
2024/02/16 04:08:01;;;;;;;;;8.33;7.00;;;;;-144.24;100.00;114865.94;5079652;28;45610;-70
2024/02/16 04:10:28;;;;;;;;;6.00;5.00;;;;;-144.24;100.00;114865.94;5079645;28;46240;-70
2024/02/16 04:12:53;;;;;;;;;4.00;4.00;;;;;-144.24;100.00;114865.94;5077922;28;45301;-70
2024/02/16 04:15:19;;;;;;;;;5.00;5.00;;;;;-144.24;100.00;114865.94;5079697;28;45472;-70
2024/02/16 04:17:44;;;;;;;;;6.33;4.67;;;;;-144.24;100.00;114865.94;5078656;28;58481;-70
2024/02/16 04:20:11;;;;;;;;;6.00;5.00;;;;;-144.24;100.00;114865.94;5073833;28;65272;-71
2024/02/16 04:22:37;;;;;;;;;5.33;5.33;;;;;-144.24;100.00;114865.94;5079692;28;45486;-71
2024/02/16 04:25:06;;;;;;;;;5.00;5.00;;;;;-144.24;100.00;114865.94;5061019;28;45304;-71
2024/02/16 04:27:31;;;;;;;;;8.67;6.00;;;;;-144.24;100.00;114865.94;5079770;28;45417;-70
2024/02/16 04:29:57;;;;;;;;;7.00;6.00;;;;;-144.24;100.00;114865.94;5078246;28;59670;-70
2024/02/16 04:32:25;;;;;;;;;7.00;4.67;;;;;-144.24;100.00;114865.94;5079046;28;45385;-70
2024/02/16 04:34:51;;;;;;;;;6.67;6.67;;;;;-144.24;100.00;114865.94;5079264;28;45464;-70
2024/02/16 04:37:18;;;;;;;;;5.00;5.00;;;;;-144.24;100.00;114865.94;5078973;28;45435;-71
2024/02/16 04:39:44;;;;;;;;;7.33;5.67;;;;;-144.24;100.00;114865.94;5078586;28;47551;-70
2024/02/16 04:42:10;;;;;;;;;5.00;4.33;;;;;-144.24;100.00;114865.94;5055341;28;45461;-70
2024/02/16 04:44:40;;;;;;;;;5.33;5.00;;;;;-144.24;100.00;114865.94;5079041;28;45769;-71
2024/02/16 04:47:05;;;;;;;;;7.67;6.33;;;;;-144.24;100.00;114865.94;5078808;28;45350;-71
2024/02/16 04:49:31;;;;;;;;;6.00;4.33;;;;;-144.24;100.00;114865.94;5078567;28;46376;-71
2024/02/16 04:51:56;;;;;;;;;6.33;5.00;;;;;-144.24;100.00;114865.94;5078903;28;45455;-70
2024/02/16 04:54:22;;;;;;;;;4.33;4.33;;;;;-144.24;100.00;114865.94;5078655;28;45229;-71
2024/02/16 04:56:48;;;;;;;;;5.00;5.00;;;;;-144.24;100.00;114865.94;5077305;28;45387;-71
2024/02/16 04:59:14;;;;;;;;;7.00;5.33;;;;;-144.24;100.00;114865.94;5073819;28;45568;-70
2024/02/16 05:01:39;;;;;;;;;7.00;6.00;;;;;-144.24;100.00;114865.94;5073731;28;45283;-70
2024/02/16 05:04:05;;;;;;;;;6.33;5.67;;;;;-144.24;100.00;114865.94;5073476;28;62389;-71
2024/02/16 05:06:30;;;;;;;;;5.00;4.00;;;;;-144.24;100.00;114865.94;5076834;28;45791;-71
2024/02/16 05:08:59;;;;;;;;;5.33;5.33;;;;;-144.24;100.00;114865.94;5059087;28;65417;-70
2024/02/16 05:11:24;;;;;;;;;7.67;5.67;;;;;-144.24;100.00;114865.94;5059448;28;45397;-69
2024/02/16 05:13:50;;;;;;;;;5.33;4.33;;;;;-144.24;100.00;114865.94;5078602;28;45330;-70
2024/02/16 05:16:16;;;;;;;;;6.00;6.00;;;;;-144.24;100.00;114865.94;5078705;28;45449;-70
2024/02/16 05:18:42;;;;;;;;;5.33;5.00;;;;;-144.24;100.00;114865.94;5078090;28;46105;-69
2024/02/16 05:21:07;;;;;;;;;4.00;4.00;;;;;-144.24;100.00;114865.94;5078381;28;45292;-70
2024/02/16 05:23:32;;;;;;;;;6.00;6.00;;;;;-144.24;100.00;114865.94;5078157;28;45282;-70
2024/02/16 05:25:58;;;;;;;;;5.67;5.00;;;;;-144.24;100.00;114865.94;5078423;28;45169;-70
2024/02/16 05:28:23;;;;;;;;;4.67;4.33;;;;;-144.24;100.00;114865.94;5077868;28;47183;-70
2024/02/16 05:30:49;;;;;;;;;5.67;5.67;;;;;-144.24;100.00;114865.94;5077569;28;61394;-70
2024/02/16 05:33:14;;;;;;;;;7.67;5.00;;;;;-144.24;100.00;114865.94;5076302;28;56146;-70
2024/02/16 05:35:40;;;;;;;;;6.00;6.00;;;;;-144.24;100.00;114865.94;5059607;28;45400;-70
2024/02/16 05:38:31;;;;;;;;;4.33;4.33;;;;;-144.24;100.00;114865.94;5077926;28;45458;-70
2024/02/16 05:40:56;;;;;;;;;9.00;6.67;;;;;-144.24;100.00;114865.94;5078020;28;45473;-70
2024/02/16 05:43:23;;;;;;;;;7.33;7.00;;;;;-144.24;100.00;114865.94;5077020;28;57898;-71
2024/02/16 05:45:49;;;;;;;;;7.00;6.00;;;;;-144.24;100.00;114815.00;5077953;28;45575;-70
2024/02/16 05:48:14;;;;;;;;;5.33;5.33;;;;;-144.24;100.00;114721.28;5077418;28;45528;-70
2024/02/16 05:50:40;;;;;;;;;7.00;7.00;;;;;-144.24;100.00;114588.84;5077491;28;45211;-71
2024/02/16 05:53:06;;;;;;;;;6.00;6.00;;;;;-144.24;100.00;114501.22;5078338;28;45529;-70
2024/02/16 05:55:31;;;;;;;;;6.33;6.33;;;;;-144.24;100.00;114399.34;5051185;28;45454;-70
2024/02/16 05:57:57;;;;;;;;;4.67;4.00;;;;;-144.24;100.00;114319.91;5077193;28;56966;-71
2024/02/16 06:00:22;;;;;;;;;5.00;5.00;;;;;-144.24;100.00;114236.38;5077140;28;50925;-70
2024/02/16 06:02:47;;;;;;;;;10.00;5.67;;;;;-144.24;100.00;114095.78;5071848;28;56230;-70
2024/02/16 06:05:13;;;;;;;;;7.33;5.00;;;;;-144.24;100.00;113983.75;5075696;28;45424;-70
2024/02/16 06:07:38;;;;;;;;;10.00;8.00;;;;;-144.24;100.00;113853.38;5077011;28;49784;-70
2024/02/16 06:10:07;;;;;;;;;5.00;5.00;;;;;-144.24;100.00;113792.25;5077029;28;45394;-71
2024/02/16 06:12:33;;;;;;;;;9.67;7.00;;;;;-144.24;100.00;113706.72;5070724;28;45282;-71
2024/02/16 06:14:59;;;;;;;;;5.67;5.00;;;;;-144.24;100.00;113610.97;5076664;28;45635;-70
2024/02/16 06:17:24;;;;;;;;;7.00;6.00;;;;;-144.24;100.00;113458.19;5077478;28;45895;-70
2024/02/16 06:19:50;;;;;;;;;6.67;6.00;;;;;-144.24;100.00;113311.56;5057197;28;45309;-70
2024/02/16 06:22:16;;;;;;;;;7.00;4.00;;;;;-144.24;100.00;113164.91;5077574;28;45297;-69
2024/02/16 06:24:41;;;;;;;;;7.00;5.00;;;;;-144.24;100.00;112953.09;5075278;28;45385;-70
2024/02/16 06:27:08;;;;;;;;;5.00;5.00;;;;;-144.24;100.00;112841.06;5073968;28;46841;-71
2024/02/16 06:29:33;;;;;;;;;12.00;6.00;;;;;-144.24;100.00;112604.84;5076009;28;45446;-70
2024/02/16 06:31:59;;;;;;;;;6.00;4.67;;;;;-144.24;100.00;112598.72;5077172;28;45389;-70
2024/02/16 06:34:25;;;;;;;;;7.67;7.67;;;;;-144.24;100.00;112435.81;5077222;28;45364;-71
2024/02/16 06:36:50;;;;;;;;;6.33;5.33;;;;;-144.24;100.00;112317.69;5076305;28;64192;-69
2024/02/16 06:39:18;;;;;;;;;6.00;4.00;;;;;-144.24;100.00;112222.00;5076919;28;45355;-69
2024/02/16 06:41:45;;;;;;;;;4.00;4.00;;;;;-144.24;100.00;112112.03;5067678;28;45264;-70
2024/02/16 06:44:11;;;;;;;;;5.67;5.67;;;;;-144.24;100.00;111908.44;5058475;28;45434;-70
2024/02/16 06:46:36;;;;;;;;;5.00;5.00;;;;;-144.24;100.00;111841.22;5076875;28;46439;-70
2024/02/16 06:49:01;;;;;;;;;9.00;7.00;;;;;-144.24;100.00;111662.06;5069949;28;57624;-70
2024/02/16 06:51:28;;;;;;;;;5.00;5.00;;;;;-144.24;100.00;111531.75;5076997;28;45484;-70
2024/02/16 06:53:54;;;;;;;;;7.67;5.33;;;;;-144.24;100.00;111458.47;5077218;28;45365;-70
2024/02/16 06:56:19;;;;;;;;;5.00;5.00;;;;;-144.24;100.00;111287.47;5076757;28;45498;-70
2024/02/16 06:58:48;;;;;;;;;8.67;5.67;;;;;-144.24;100.00;111151.06;5075142;28;45459;-71
2024/02/16 07:01:14;;;;;;;;;6.00;6.00;;;;;-144.24;100.00;110980.06;5076566;28;45631;-71
2024/02/16 07:03:40;;;;;;;;;5.00;4.33;;;;;-144.24;100.00;110933.25;5076204;28;45323;-70
2024/02/16 07:06:09;;;;;;;;;8.00;6.00;;;;;-144.24;100.00;110831.47;5076232;28;46364;-70
2024/02/16 07:08:35;;;;;;;;;6.00;6.00;;;;;-144.24;100.00;110697.13;5075541;28;45451;-70
2024/02/16 07:11:03;;;;;;;;;6.67;4.67;;;;;-144.24;100.00;110542.41;5059440;28;45545;-70
2024/02/16 07:13:29;;;;;;;;;6.00;5.00;;;;;-144.24;100.00;110330.75;5072690;28;45258;-70
2024/02/16 07:15:54;;;;;;;;;6.00;4.67;;;;;-144.24;100.00;110082.44;5076356;28;46229;-69
2024/02/16 07:18:21;;;;;;;;;4.67;4.00;;;;;-144.24;100.00;109899.28;5076345;28;45445;-68
2024/02/16 07:20:47;;;;;;;;;5.33;3.00;;;;;-144.24;100.00;109600.13;5075045;28;45425;-68
2024/02/16 07:23:15;;;;;;;;;3.67;3.00;;;;;-144.24;100.00;109307.09;5069827;28;45472;-69
2024/02/16 07:25:41;;;;;;;;;4.00;3.00;;;;;-144.24;100.00;109056.81;5076622;28;45639;-68
2024/02/16 07:28:06;;;;;;;;;4.00;3.00;;;;;-144.24;100.00;108808.59;5074374;28;45398;-68
2024/02/16 07:30:31;;;;;;;;;7.67;3.00;;;;;-144.24;100.00;108458.66;5073630;28;45314;-68
2024/02/16 07:32:57;;;;;;;;;9.00;3.00;;;;;-144.24;100.00;108100.63;5075483;28;54015;-68
2024/02/16 07:35:24;;;;;;;;;0.00;0.00;;;;;-144.24;100.00;107738.56;5078264;28;62325;-69
2024/02/16 07:37:52;;;;;;;;;2.00;2.00;;;;;-144.24;100.00;107303.31;5076881;28;45383;-69
2024/02/16 07:40:17;;;;;;;;;4.00;2.67;;;;;-144.24;100.00;107063.31;5075603;28;45410;-69
2024/02/16 07:42:44;;;;;;;;;4.67;2.67;;;;;-144.24;100.00;106504.09;5073989;28;45571;-69
2024/02/16 07:45:11;;;;;;;;;3.00;1.00;;;;;-144.24;100.00;106136.06;5057953;28;45819;-69
2024/02/16 07:47:36;;;;;;;;;2.33;2.33;;;;;-144.24;100.00;105692.84;5074690;28;45355;-69
2024/02/16 07:50:03;;;;;;;;;2.00;2.00;;;;;-144.24;100.00;105247.63;5079303;28;45464;-69
2024/02/16 07:52:28;;;;;;;;;3.00;2.00;;;;;-144.24;100.00;104944.75;5078760;28;45349;-69
2024/02/16 07:54:54;;;;;;;;;2.00;2.00;;;;;-144.24;100.00;104524.03;5076735;28;45574;-69
2024/02/16 07:57:19;;;;;;;;;2.00;2.00;;;;;-144.24;100.00;104261.84;5074542;28;45516;-68
2024/02/16 07:59:44;;;;;;;;;1.00;1.00;;;;;-144.24;100.00;103863.56;5078509;28;45581;-68
2024/02/16 08:02:15;;;;;;;;;3.67;2.33;;;;;-144.24;100.00;103558.75;5073099;28;46903;-69
2024/02/16 08:04:41;;;;;;;;;3.00;1.00;;;;;-144.24;100.00;103258.03;5073578;28;47356;-70
2024/02/16 08:07:06;;;;;;;;;1.00;1.00;;;;;-144.24;100.00;102821.22;5077072;28;45458;-71
2024/02/16 08:09:31;;;;;;;;;2.33;1.00;;;;;-144.24;100.00;102551.03;5054875;28;45602;-71
2024/02/16 08:11:57;;;;;;;;;0.00;0.00;;;;;-144.24;100.00;102427.13;5078574;28;48388;-70
2024/02/16 08:14:22;;;;;;;;;2.33;1.00;;;;;-144.24;100.00;102382.41;5078104;28;55182;-71
2024/02/16 08:16:48;;;;;;;;;1.00;1.00;;;;;-144.24;100.00;102321.47;5078669;28;53898;-70
2024/02/16 08:19:13;;;;;;;;;2.00;0.67;;;;;-144.24;100.00;102291.00;5078168;28;45386;-70
2024/02/16 08:21:39;;;;;;;;;1.00;1.00;;;;;-144.24;100.00;102469.78;5079206;28;45580;-70
2024/02/16 08:24:06;;;;;;;;;1.33;0.00;;;;;-144.24;100.00;102536.81;5078508;28;45636;-71
2024/02/16 08:26:31;;;;;;;;;2.00;0.33;;;;;-144.24;100.00;102555.09;5078777;28;45513;-70
2024/02/16 08:28:57;;;;;;;;;2.00;1.00;;;;;-144.24;100.00;102484.00;5078674;28;50857;-70
2024/02/16 08:31:22;;;;;;;;;3.33;0.00;;;;;-144.24;100.00;102599.78;5077529;28;48635;-70
2024/02/16 08:33:47;;;;;;;;;3.33;0.00;;;;;-144.24;100.00;102691.19;5066083;28;56644;-70
2024/02/16 08:36:14;;;;;;;;;2.00;1.00;;;;;-144.24;100.00;102833.41;5078051;28;45627;-70
2024/02/16 08:38:39;;;;;;;;;0.67;0.67;;;;;-144.24;100.00;103071.09;5077319;28;45439;-71
2024/02/16 08:41:05;;;;;;;;;3.00;1.00;;;;;-144.24;100.00;103111.75;5078743;28;45286;-71
2024/02/16 08:43:30;;;;;;;;;4.33;0.33;;;;;-144.24;100.00;103180.81;5078555;28;45830;-71
2024/02/16 08:45:56;;;;;;;;;0.67;0.67;;;;;-144.24;100.00;103298.66;5078694;28;45406;-71
2024/02/16 08:48:21;;;;;;;;;0.67;0.00;;;;;-144.24;100.00;103355.56;5077704;28;45312;-70
2024/02/16 08:50:47;;;;;;;;;1.00;0.33;;;;;-144.24;100.00;103444.97;5060818;28;45451;-70
2024/02/16 08:53:13;;;;;;;;;2.00;0.00;;;;;-144.24;100.00;103542.50;5078979;28;45528;-71
2024/02/16 08:55:39;;;;;;;;;0.00;0.00;;;;;-144.24;100.00;103694.88;5078856;28;45406;-71
2024/02/16 08:58:07;;;;;;;;;0.67;0.33;;;;;-144.24;100.00;103703.00;5078790;27;45469;-70
2024/02/16 09:00:33;;;;;;;;;3.00;0.00;;;;;-144.24;100.00;103841.19;5078624;28;45573;-70
2024/02/16 09:02:58;;;;;;;;;0.00;0.00;;;;;-144.24;100.00;103965.16;5071503;28;48810;-71
2024/02/16 09:05:23;;;;;;;;;3.00;0.00;;;;;-144.24;100.00;104101.31;5076291;28;45450;-71
2024/02/16 09:07:49;;;;;;;;;0.00;0.00;;;;;-144.24;100.00;104123.66;5078104;28;51281;-71
2024/02/16 09:10:14;;;;;;;;;0.00;0.00;;;;;-144.24;100.00;104296.41;5077862;28;55918;-70
2024/02/16 09:12:40;;;;;;;;;1.00;1.00;;;;;-144.24;100.00;104300.47;5077809;28;45956;-71
2024/02/16 09:15:06;;;;;;;;;0.33;0.00;;;;;-144.24;100.00;104272.03;5078319;28;45314;-70
2024/02/16 09:17:31;;;;;;;;;1.00;0.00;;;;;-144.24;100.00;104373.63;5078496;28;45383;-70
2024/02/16 09:19:57;;;;;;;;;0.00;0.00;;;;;-144.24;100.00;104414.28;5078260;28;45268;-71
2024/02/16 09:22:22;;;;;;;;;1.00;0.00;;;;;-144.24;100.00;104316.72;5060720;28;47638;-73
2024/02/16 09:24:48;;;;;;;;;1.67;1.00;;;;;-144.24;100.00;104430.53;5077487;28;45638;-72
2024/02/16 09:27:13;;;;;;;;;0.00;0.00;;;;;-144.24;100.00;104107.41;5077081;28;45350;-71
2024/02/16 09:29:39;;;;;;;;;0.00;0.00;;;;;-144.24;100.00;104064.72;5059579;28;45657;-71
2024/02/16 09:32:05;;;;;;;;;2.00;0.00;;;;;-144.24;100.00;103829.00;5077261;28;47231;-71
2024/02/16 09:34:30;;;;;;;;;0.67;0.00;;;;;-144.24;100.00;103711.16;5075629;28;45358;-70
2024/02/16 09:36:56;;;;;;;;;1.67;0.00;;;;;-144.24;100.00;103516.06;5077053;28;45491;-71
2024/02/16 09:39:21;;;;;;;;;0.00;0.00;;;;;-144.24;100.00;103258.03;5076615;28;48707;-70
2024/02/16 09:41:50;;;;;;;;;0.00;0.00;;;;;-144.24;100.00;103042.66;5057456;28;70169;-70
2024/02/16 09:44:16;;;;;;;;;2.33;0.00;;;;;-144.24;100.00;102705.41;5074298;28;45454;-70
2024/02/16 09:46:42;;;;;;;;;0.67;0.67;;;;;-144.24;100.00;102118.34;5076041;28;45180;-71
2024/02/16 09:49:07;;;;;;;;;2.67;0.00;;;;;-144.24;100.00;101935.56;5075605;28;48359;-71
2024/02/16 09:51:36;;;;;;;;;2.00;0.67;;;;;-144.24;100.00;101425.78;5076581;28;56521;-71
2024/02/16 09:54:03;;;;;;;;;0.67;0.67;;;;;-144.24;100.00;101070.38;5075649;28;45345;-71
2024/02/16 09:56:28;;;;;;;;;1.00;1.00;;;;;-144.24;100.00;100670.34;5077416;28;45477;-71
2024/02/16 09:58:57;;;;;;;;;2.00;1.00;;;;;-144.24;100.00;100181.03;5077471;28;45545;-70
2024/02/16 10:01:23;;;;;;;;;0.00;0.00;;;;;-144.24;100.00;99486.75;5075638;28;46786;-71
2024/02/16 10:03:49;;;;;;;;;2.00;1.00;;;;;-144.24;100.00;98798.69;5057154;28;45544;-71
2024/02/16 10:06:15;;;;;;;;;2.67;1.00;;;;;-144.24;100.00;98181.72;5073591;28;45464;-71
2024/02/16 10:08:52;;;;;;;;;2.33;1.67;;;;;-144.24;100.00;97871.28;5076683;28;45536;-71
2024/02/16 10:11:19;;;;;;;;;2.00;1.00;;;;;-144.24;100.00;97820.53;5058383;28;45737;-71
2024/02/16 10:13:58;;;;;;;;;2.00;2.00;;;;;-144.24;100.00;97428.97;5076337;28;45374;-71
2024/02/16 10:16:24;;;;;;;;;2.67;2.67;;;;;-144.24;100.00;97130.72;5076690;28;45392;-70
2024/02/16 10:18:49;;;;;;;;;4.00;2.67;;;;;-144.24;100.00;96712.81;5077094;28;45410;-71
2024/02/16 10:21:24;;;;;;;;;4.00;4.00;;;;;-144.24;100.00;96591.13;5076437;28;53682;-70
2024/02/16 10:24:21;;;;;;;;;4.00;4.00;;;;;-144.24;100.00;96286.88;5076661;28;45290;-72
2024/02/16 10:26:46;;;;;;;;;5.00;5.00;;;;;-144.24;100.00;96102.28;5075729;28;45245;-70
2024/02/16 10:29:13;;;;;;;;;6.00;6.00;;;;;-144.24;100.00;95820.38;5077397;28;45512;-72
2024/02/16 10:31:39;;;;;;;;;8.00;8.00;;;;;-144.24;100.00;95875.13;5076786;28;45787;-71
2024/02/16 10:34:05;;;;;;;;;10.00;10.00;;;;;-144.24;100.00;95737.22;5077155;28;45502;-71
2024/02/16 10:36:36;;;;;;;;;12.67;11.00;;;;;-144.24;100.00;95688.56;5076939;28;45402;-71
2024/02/16 10:39:05;;;;;;;;;14.33;12.67;;;;;-144.24;100.00;95538.50;5069898;28;45607;-71
2024/02/16 10:41:35;;;;;;;;;21.33;18.00;;;;;-144.24;100.00;95254.59;5058331;28;47678;-72
2024/02/16 10:44:02;;;;;;;;;18.33;18.33;;;;;-144.24;100.00;95019.38;5076073;28;45370;-72
2024/02/16 10:46:28;;;;;;;;;13.33;13.33;;;;;-144.24;100.00;94701.03;5077055;28;45464;-71
2024/02/16 10:48:53;;;;;;;;;17.33;17.00;;;;;-144.24;100.00;94378.69;5069233;28;45378;-72
2024/02/16 10:51:24;;;;;;;;;16.00;13.33;;;;;-144.24;100.00;94155.69;5076390;28;47604;-71
2024/02/16 10:53:51;;;;;;;;;18.00;16.33;;;;;-144.24;100.00;93869.84;5071853;28;45450;-71
2024/02/16 10:58:54;;;;;;;;;19.33;17.00;;;;;-144.24;100.00;93342.84;5051070;28;46692;-71